sensor_id;sensor_type;location;lat;lon;timestamp;pressure;altitude;pressure_sealevel;temperature;humidity
55022;BME280;42516;35.990;-86.756;2022-08-21T00:00:33;99093.48;;;29.75;50.94
55022;BME280;42516;35.990;-86.756;2022-08-21T00:03:05;99094.01;;;29.77;50.92
55022;BME280;42516;35.990;-86.756;2022-08-21T00:05:39;99097.88;;;29.76;50.97
55022;BME280;42516;35.990;-86.756;2022-08-21T00:08:08;99100.66;;;30.15;51.03
55022;BME280;42516;35.990;-86.756;2022-08-21T00:10:36;99104.15;;;29.69;51.10
55022;BME280;42516;35.990;-86.756;2022-08-21T00:13:05;99098.82;;;29.75;50.88
55022;BME280;42516;35.990;-86.756;2022-08-21T00:15:35;99090.31;;;29.68;50.95
55022;BME280;42516;35.990;-86.756;2022-08-21T00:18:05;99091.48;;;29.91;50.83
55022;BME280;42516;35.990;-86.756;2022-08-21T00:20:34;99094.23;;;29.87;50.98
55022;BME280;42516;35.990;-86.756;2022-08-21T00:23:02;99104.32;;;29.51;51.39
55022;BME280;42516;35.990;-86.756;2022-08-21T00:25:30;99104.86;;;29.68;51.43
55022;BME280;42516;35.990;-86.756;2022-08-21T00:27:58;99100.44;;;29.29;51.68
55022;BME280;42516;35.990;-86.756;2022-08-21T00:30:26;99094.03;;;29.29;51.52
55022;BME280;42516;35.990;-86.756;2022-08-21T00:32:55;99091.88;;;29.48;51.64
55022;BME280;42516;35.990;-86.756;2022-08-21T00:35:27;99093.93;;;29.27;51.67
55022;BME280;42516;35.990;-86.756;2022-08-21T00:37:56;99087.73;;;29.32;51.31
55022;BME280;42516;35.990;-86.756;2022-08-21T00:40:26;99088.80;;;29.46;51.42
55022;BME280;42516;35.990;-86.756;2022-08-21T00:42:57;99095.82;;;29.22;51.44
55022;BME280;42516;35.990;-86.756;2022-08-21T00:45:25;99093.23;;;29.17;51.38
55022;BME280;42516;35.990;-86.756;2022-08-21T00:47:53;99100.37;;;29.57;51.46
55022;BME280;42516;35.990;-86.756;2022-08-21T00:50:22;99113.57;;;29.39;51.89
55022;BME280;42516;35.990;-86.756;2022-08-21T00:52:51;99118.25;;;29.17;51.85
55022;BME280;42516;35.990;-86.756;2022-08-21T00:55:21;99119.64;;;29.36;51.82
55022;BME280;42516;35.990;-86.756;2022-08-21T00:57:52;99123.28;;;29.33;51.74
55022;BME280;42516;35.990;-86.756;2022-08-21T01:00:24;99127.59;;;29.14;52.11
55022;BME280;42516;35.990;-86.756;2022-08-21T01:02:52;99128.35;;;29.19;51.89
55022;BME280;42516;35.990;-86.756;2022-08-21T01:05:20;99123.92;;;29.06;52.24
55022;BME280;42516;35.990;-86.756;2022-08-21T01:07:49;99124.25;;;29.06;52.17
55022;BME280;42516;35.990;-86.756;2022-08-21T01:10:18;99124.17;;;29.29;51.90
55022;BME280;42516;35.990;-86.756;2022-08-21T01:12:46;99123.97;;;29.08;51.84
55022;BME280;42516;35.990;-86.756;2022-08-21T01:15:14;99133.68;;;29.05;51.89
55022;BME280;42516;35.990;-86.756;2022-08-21T01:17:44;99135.82;;;28.95;52.15
55022;BME280;42516;35.990;-86.756;2022-08-21T01:20:13;99132.70;;;28.96;51.96
55022;BME280;42516;35.990;-86.756;2022-08-21T01:22:41;99134.44;;;28.87;52.08
55022;BME280;42516;35.990;-86.756;2022-08-21T01:25:11;99135.65;;;28.96;51.90
55022;BME280;42516;35.990;-86.756;2022-08-21T01:27:40;99138.47;;;28.79;52.54
55022;BME280;42516;35.990;-86.756;2022-08-21T01:30:13;99143.07;;;28.43;52.67
55022;BME280;42516;35.990;-86.756;2022-08-21T01:32:42;99133.07;;;28.62;52.20
55022;BME280;42516;35.990;-86.756;2022-08-21T01:35:11;99134.98;;;28.65;52.36
55022;BME280;42516;35.990;-86.756;2022-08-21T01:37:42;99132.18;;;28.72;52.21
55022;BME280;42516;35.990;-86.756;2022-08-21T01:40:12;99129.61;;;28.35;52.25
55022;BME280;42516;35.990;-86.756;2022-08-21T01:42:40;99126.94;;;28.46;52.71
55022;BME280;42516;35.990;-86.756;2022-08-21T01:45:09;99123.92;;;28.38;52.93
55022;BME280;42516;35.990;-86.756;2022-08-21T01:47:38;99123.79;;;27.64;53.68
55022;BME280;42516;35.990;-86.756;2022-08-21T01:50:11;99125.45;;;27.99;53.56
55022;BME280;42516;35.990;-86.756;2022-08-21T01:52:41;99132.94;;;28.06;53.32
55022;BME280;42516;35.990;-86.756;2022-08-21T01:55:10;99139.15;;;27.38;54.51
55022;BME280;42516;35.990;-86.756;2022-08-21T01:57:38;99141.15;;;27.82;53.72
55022;BME280;42516;35.990;-86.756;2022-08-21T02:00:10;99140.37;;;27.04;55.16
55022;BME280;42516;35.990;-86.756;2022-08-21T02:02:40;99144.51;;;27.64;54.05
55022;BME280;42516;35.990;-86.756;2022-08-21T02:05:11;99152.81;;;27.41;54.59
55022;BME280;42516;35.990;-86.756;2022-08-21T02:07:41;99153.39;;;27.49;54.48
55022;BME280;42516;35.990;-86.756;2022-08-21T02:10:13;99158.98;;;27.61;54.25
55022;BME280;42516;35.990;-86.756;2022-08-21T02:12:41;99162.79;;;27.88;53.15
55022;BME280;42516;35.990;-86.756;2022-08-21T02:15:09;99158.46;;;28.00;53.35
55022;BME280;42516;35.990;-86.756;2022-08-21T02:17:39;99163.58;;;28.09;53.16
55022;BME280;42516;35.990;-86.756;2022-08-21T02:20:10;99168.20;;;28.23;52.88
55022;BME280;42516;35.990;-86.756;2022-08-21T02:22:38;99172.34;;;27.94;52.53
55022;BME280;42516;35.990;-86.756;2022-08-21T02:25:07;99175.34;;;28.09;52.25
55022;BME280;42516;35.990;-86.756;2022-08-21T02:27:39;99179.48;;;28.31;51.76
55022;BME280;42516;35.990;-86.756;2022-08-21T02:30:11;99180.13;;;28.47;51.50
55022;BME280;42516;35.990;-86.756;2022-08-21T02:32:39;99184.33;;;28.42;51.44
55022;BME280;42516;35.990;-86.756;2022-08-21T02:35:08;99187.10;;;28.29;51.31
55022;BME280;42516;35.990;-86.756;2022-08-21T02:37:46;99193.09;;;28.58;51.06
55022;BME280;42516;35.990;-86.756;2022-08-21T02:40:16;99195.65;;;28.81;51.17
55022;BME280;42516;35.990;-86.756;2022-08-21T02:42:44;99193.28;;;28.37;51.43
55022;BME280;42516;35.990;-86.756;2022-08-21T02:45:14;99194.67;;;28.75;51.53
55022;BME280;42516;35.990;-86.756;2022-08-21T02:47:49;99202.15;;;28.23;51.58
55022;BME280;42516;35.990;-86.756;2022-08-21T02:50:19;99197.70;;;28.13;51.72
55022;BME280;42516;35.990;-86.756;2022-08-21T02:52:48;99199.13;;;28.23;51.55
55022;BME280;42516;35.990;-86.756;2022-08-21T02:55:18;99197.86;;;28.43;51.68
55022;BME280;42516;35.990;-86.756;2022-08-21T02:57:46;99195.70;;;28.22;51.55
55022;BME280;42516;35.990;-86.756;2022-08-21T03:00:16;99191.92;;;28.43;51.56
55022;BME280;42516;35.990;-86.756;2022-08-21T03:02:44;99187.66;;;28.23;52.10
55022;BME280;42516;35.990;-86.756;2022-08-21T03:05:14;99181.59;;;28.09;52.74
55022;BME280;42516;35.990;-86.756;2022-08-21T03:07:44;99180.44;;;28.07;52.60
55022;BME280;42516;35.990;-86.756;2022-08-21T03:10:14;99183.72;;;28.03;52.30
55022;BME280;42516;35.990;-86.756;2022-08-21T03:12:42;99190.16;;;28.08;52.21
55022;BME280;42516;35.990;-86.756;2022-08-21T03:15:15;99193.41;;;28.08;52.16
55022;BME280;42516;35.990;-86.756;2022-08-21T03:17:44;99196.18;;;28.16;51.98
55022;BME280;42516;35.990;-86.756;2022-08-21T03:20:14;99204.91;;;28.36;51.92
55022;BME280;42516;35.990;-86.756;2022-08-21T03:22:43;99210.76;;;28.11;52.09
55022;BME280;42516;35.990;-86.756;2022-08-21T03:25:11;99216.37;;;27.96;52.40
55022;BME280;42516;35.990;-86.756;2022-08-21T03:27:39;99219.75;;;28.18;52.25
55022;BME280;42516;35.990;-86.756;2022-08-21T03:30:08;99219.25;;;28.02;51.98
55022;BME280;42516;35.990;-86.756;2022-08-21T03:32:36;99219.99;;;28.05;51.89
55022;BME280;42516;35.990;-86.756;2022-08-21T03:35:06;99215.73;;;28.06;51.87
55022;BME280;42516;35.990;-86.756;2022-08-21T03:37:35;99207.74;;;28.00;51.98
55022;BME280;42516;35.990;-86.756;2022-08-21T03:40:03;99203.12;;;28.16;51.96
55022;BME280;42516;35.990;-86.756;2022-08-21T03:42:32;99198.48;;;28.13;51.84
55022;BME280;42516;35.990;-86.756;2022-08-21T03:45:00;99195.86;;;27.96;52.18
55022;BME280;42516;35.990;-86.756;2022-08-21T03:47:27;99197.86;;;27.94;52.21
55022;BME280;42516;35.990;-86.756;2022-08-21T03:49:56;99198.88;;;27.76;52.74
55022;BME280;42516;35.990;-86.756;2022-08-21T03:52:23;99201.75;;;27.86;52.36
55022;BME280;42516;35.990;-86.756;2022-08-21T03:54:51;99208.15;;;27.82;52.44
55022;BME280;42516;35.990;-86.756;2022-08-21T03:57:19;99209.59;;;28.25;52.77
55022;BME280;42516;35.990;-86.756;2022-08-21T03:59:47;99211.17;;;27.83;52.64
55022;BME280;42516;35.990;-86.756;2022-08-21T04:02:17;99206.49;;;27.71;52.86
55022;BME280;42516;35.990;-86.756;2022-08-21T04:04:48;99204.63;;;27.96;52.80
55022;BME280;42516;35.990;-86.756;2022-08-21T04:07:16;99210.65;;;27.72;52.78
55022;BME280;42516;35.990;-86.756;2022-08-21T04:09:44;99210.81;;;27.77;52.52
55022;BME280;42516;35.990;-86.756;2022-08-21T04:12:12;99210.46;;;27.55;53.07
55022;BME280;42516;35.990;-86.756;2022-08-21T04:14:40;99202.48;;;27.58;52.98
55022;BME280;42516;35.990;-86.756;2022-08-21T04:17:08;99195.12;;;27.70;52.74
55022;BME280;42516;35.990;-86.756;2022-08-21T04:19:36;99194.21;;;27.15;54.01
55022;BME280;42516;35.990;-86.756;2022-08-21T04:22:05;99197.28;;;27.28;53.71
55022;BME280;42516;35.990;-86.756;2022-08-21T04:24:32;99201.76;;;27.35;53.61
55022;BME280;42516;35.990;-86.756;2022-08-21T04:27:00;99199.07;;;27.47;53.37
55022;BME280;42516;35.990;-86.756;2022-08-21T04:29:28;99202.05;;;27.13;54.09
55022;BME280;42516;35.990;-86.756;2022-08-21T04:31:56;99208.30;;;27.38;54.25
55022;BME280;42516;35.990;-86.756;2022-08-21T04:34:24;99199.83;;;27.29;54.45
55022;BME280;42516;35.990;-86.756;2022-08-21T04:36:52;99195.66;;;27.09;54.25
55022;BME280;42516;35.990;-86.756;2022-08-21T04:39:19;99194.90;;;27.35;54.26
55022;BME280;42516;35.990;-86.756;2022-08-21T04:41:47;99193.78;;;27.16;53.94
55022;BME280;42516;35.990;-86.756;2022-08-21T04:44:15;99191.79;;;27.10;54.18
55022;BME280;42516;35.990;-86.756;2022-08-21T04:46:43;99190.45;;;27.41;54.15
55022;BME280;42516;35.990;-86.756;2022-08-21T04:49:11;99193.41;;;27.32;53.65
55022;BME280;42516;35.990;-86.756;2022-08-21T04:51:39;99189.34;;;27.80;53.59
55022;BME280;42516;35.990;-86.756;2022-08-21T04:54:12;99175.91;;;27.37;53.28
55022;BME280;42516;35.990;-86.756;2022-08-21T04:56:46;99171.83;;;27.46;53.04
55022;BME280;42516;35.990;-86.756;2022-08-21T04:59:17;99170.25;;;27.45;53.05
55022;BME280;42516;35.990;-86.756;2022-08-21T05:01:46;99168.11;;;27.57;52.65
55022;BME280;42516;35.990;-86.756;2022-08-21T05:04:16;99164.76;;;27.50;52.77
55022;BME280;42516;35.990;-86.756;2022-08-21T05:06:47;99164.30;;;27.54;52.65
55022;BME280;42516;35.990;-86.756;2022-08-21T05:09:18;99164.02;;;27.40;53.03
55022;BME280;42516;35.990;-86.756;2022-08-21T05:11:47;99160.87;;;27.48;52.78
55022;BME280;42516;35.990;-86.756;2022-08-21T05:14:15;99153.97;;;27.61;53.03
55022;BME280;42516;35.990;-86.756;2022-08-21T05:16:43;99149.43;;;27.13;53.66
55022;BME280;42516;35.990;-86.756;2022-08-21T05:19:11;99150.05;;;27.28;53.21
55022;BME280;42516;35.990;-86.756;2022-08-21T05:21:42;99153.85;;;27.40;52.90
55022;BME280;42516;35.990;-86.756;2022-08-21T05:24:10;99156.56;;;27.36;52.94
55022;BME280;42516;35.990;-86.756;2022-08-21T05:26:39;99150.75;;;27.40;52.83
55022;BME280;42516;35.990;-86.756;2022-08-21T05:29:07;99141.58;;;27.47;52.57
55022;BME280;42516;35.990;-86.756;2022-08-21T05:31:35;99138.35;;;27.49;52.55
55022;BME280;42516;35.990;-86.756;2022-08-21T05:34:03;99142.15;;;27.39;52.78
55022;BME280;42516;35.990;-86.756;2022-08-21T05:36:31;99149.05;;;27.01;53.53
55022;BME280;42516;35.990;-86.756;2022-08-21T05:39:00;99148.05;;;27.22;53.65
55022;BME280;42516;35.990;-86.756;2022-08-21T05:41:28;99133.51;;;27.44;53.15
55022;BME280;42516;35.990;-86.756;2022-08-21T05:43:56;99127.53;;;27.71;53.01
55022;BME280;42516;35.990;-86.756;2022-08-21T05:46:24;99136.14;;;27.56;52.98
55022;BME280;42516;35.990;-86.756;2022-08-21T05:48:52;99143.55;;;27.34;52.82
55022;BME280;42516;35.990;-86.756;2022-08-21T05:51:19;99140.58;;;27.34;52.85
55022;BME280;42516;35.990;-86.756;2022-08-21T05:53:48;99131.30;;;27.34;52.77
55022;BME280;42516;35.990;-86.756;2022-08-21T05:56:16;99124.66;;;27.35;52.74
55022;BME280;42516;35.990;-86.756;2022-08-21T05:58:44;99123.81;;;27.63;52.54
55022;BME280;42516;35.990;-86.756;2022-08-21T06:01:13;99117.49;;;27.94;52.40
55022;BME280;42516;35.990;-86.756;2022-08-21T06:03:41;99109.79;;;27.48;52.32
55022;BME280;42516;35.990;-86.756;2022-08-21T06:06:09;99102.47;;;27.55;52.19
55022;BME280;42516;35.990;-86.756;2022-08-21T06:08:37;99104.94;;;27.90;52.57
55022;BME280;42516;35.990;-86.756;2022-08-21T06:11:06;99104.98;;;27.44;52.53
55022;BME280;42516;35.990;-86.756;2022-08-21T06:13:36;99101.86;;;27.15;53.14
55022;BME280;42516;35.990;-86.756;2022-08-21T06:16:07;99091.96;;;27.21;52.99
55022;BME280;42516;35.990;-86.756;2022-08-21T06:18:36;99086.61;;;27.27;52.98
55022;BME280;42516;35.990;-86.756;2022-08-21T06:21:05;99086.89;;;27.37;52.76
55022;BME280;42516;35.990;-86.756;2022-08-21T06:23:34;99086.32;;;27.29;53.06
55022;BME280;42516;35.990;-86.756;2022-08-21T06:26:04;99086.94;;;27.37;52.65
55022;BME280;42516;35.990;-86.756;2022-08-21T06:28:33;99085.16;;;27.36;52.59
55022;BME280;42516;35.990;-86.756;2022-08-21T06:31:11;99078.46;;;27.39;52.54
55022;BME280;42516;35.990;-86.756;2022-08-21T06:33:40;99065.44;;;27.37;52.54
55022;BME280;42516;35.990;-86.756;2022-08-21T06:36:08;99058.61;;;27.29;52.75
55022;BME280;42516;35.990;-86.756;2022-08-21T06:38:37;99052.94;;;27.26;52.82
55022;BME280;42516;35.990;-86.756;2022-08-21T06:41:05;99053.40;;;27.31;52.62
55022;BME280;42516;35.990;-86.756;2022-08-21T06:43:34;99046.95;;;27.25;52.81
55022;BME280;42516;35.990;-86.756;2022-08-21T06:46:01;99044.41;;;27.14;53.69
55022;BME280;42516;35.990;-86.756;2022-08-21T06:48:29;99040.51;;;27.40;53.18
55022;BME280;42516;35.990;-86.756;2022-08-21T06:50:59;99044.72;;;27.00;53.45
55022;BME280;42516;35.990;-86.756;2022-08-21T06:53:28;99050.70;;;27.03;53.23
55022;BME280;42516;35.990;-86.756;2022-08-21T06:55:55;99049.09;;;27.11;53.16
55022;BME280;42516;35.990;-86.756;2022-08-21T06:58:23;99051.92;;;27.36;53.03
55022;BME280;42516;35.990;-86.756;2022-08-21T07:00:51;99054.43;;;27.10;52.97
55022;BME280;42516;35.990;-86.756;2022-08-21T07:03:22;99050.37;;;27.35;53.16
55022;BME280;42516;35.990;-86.756;2022-08-21T07:05:51;99050.24;;;26.98;53.34
55022;BME280;42516;35.990;-86.756;2022-08-21T07:08:19;99053.90;;;27.48;53.31
55022;BME280;42516;35.990;-86.756;2022-08-21T07:10:48;99048.03;;;27.28;53.25
55022;BME280;42516;35.990;-86.756;2022-08-21T07:13:16;99053.47;;;27.39;53.32
55022;BME280;42516;35.990;-86.756;2022-08-21T07:15:46;99049.05;;;26.99;53.14
55022;BME280;42516;35.990;-86.756;2022-08-21T07:18:14;99048.93;;;27.30;53.41
55022;BME280;42516;35.990;-86.756;2022-08-21T07:20:43;99057.38;;;27.15;53.22
55022;BME280;42516;35.990;-86.756;2022-08-21T07:23:15;99062.85;;;27.45;53.09
55022;BME280;42516;35.990;-86.756;2022-08-21T07:25:47;99070.53;;;27.41;53.14
55022;BME280;42516;35.990;-86.756;2022-08-21T07:28:17;99069.50;;;27.02;52.93
55022;BME280;42516;35.990;-86.756;2022-08-21T07:30:45;99065.46;;;27.17;53.14
55022;BME280;42516;35.990;-86.756;2022-08-21T07:33:13;99068.10;;;27.40;53.19
55022;BME280;42516;35.990;-86.756;2022-08-21T07:35:41;99073.29;;;27.23;53.63
55022;BME280;42516;35.990;-86.756;2022-08-21T07:38:09;99073.79;;;27.12;53.39
55022;BME280;42516;35.990;-86.756;2022-08-21T07:40:36;99067.01;;;27.18;52.88
55022;BME280;42516;35.990;-86.756;2022-08-21T07:43:04;99058.11;;;27.18;52.79
55022;BME280;42516;35.990;-86.756;2022-08-21T07:45:33;99053.88;;;26.78;52.96
55022;BME280;42516;35.990;-86.756;2022-08-21T07:48:01;99051.18;;;26.88;52.68
55022;BME280;42516;35.990;-86.756;2022-08-21T07:50:29;99051.57;;;27.35;52.73
55022;BME280;42516;35.990;-86.756;2022-08-21T07:52:57;99054.76;;;27.26;53.17
55022;BME280;42516;35.990;-86.756;2022-08-21T07:55:25;99056.87;;;27.10;52.96
55022;BME280;42516;35.990;-86.756;2022-08-21T07:57:53;99058.09;;;27.14;52.89
55022;BME280;42516;35.990;-86.756;2022-08-21T08:00:24;99050.23;;;27.26;53.00
55022;BME280;42516;35.990;-86.756;2022-08-21T08:02:53;99051.39;;;27.17;53.13
55022;BME280;42516;35.990;-86.756;2022-08-21T08:05:23;99055.36;;;26.97;53.02
55022;BME280;42516;35.990;-86.756;2022-08-21T08:07:52;99058.10;;;27.03;52.90
55022;BME280;42516;35.990;-86.756;2022-08-21T08:10:20;99056.21;;;27.27;52.75
55022;BME280;42516;35.990;-86.756;2022-08-21T08:12:51;99055.02;;;27.27;52.68
55022;BME280;42516;35.990;-86.756;2022-08-21T08:15:24;99048.17;;;27.16;52.85
55022;BME280;42516;35.990;-86.756;2022-08-21T08:17:53;99045.18;;;27.20;52.84
55022;BME280;42516;35.990;-86.756;2022-08-21T08:20:22;99045.50;;;26.96;52.83
55022;BME280;42516;35.990;-86.756;2022-08-21T08:22:50;99045.34;;;26.92;53.03
55022;BME280;42516;35.990;-86.756;2022-08-21T08:25:19;99042.66;;;26.83;53.17
55022;BME280;42516;35.990;-86.756;2022-08-21T08:27:47;99046.79;;;26.98;53.27
55022;BME280;42516;35.990;-86.756;2022-08-21T08:30:17;99049.26;;;26.99;53.18
55022;BME280;42516;35.990;-86.756;2022-08-21T08:32:46;99047.04;;;27.06;53.06
55022;BME280;42516;35.990;-86.756;2022-08-21T08:35:14;99051.32;;;27.05;53.07
55022;BME280;42516;35.990;-86.756;2022-08-21T08:37:43;99056.40;;;26.62;53.64
55022;BME280;42516;35.990;-86.756;2022-08-21T08:40:13;99058.34;;;26.79;53.30
55022;BME280;42516;35.990;-86.756;2022-08-21T08:42:41;99054.03;;;27.16;52.93
55022;BME280;42516;35.990;-86.756;2022-08-21T08:45:13;99055.63;;;27.06;53.03
55022;BME280;42516;35.990;-86.756;2022-08-21T08:47:45;99061.69;;;27.06;53.21
55022;BME280;42516;35.990;-86.756;2022-08-21T08:50:18;99065.10;;;27.01;53.37
55022;BME280;42516;35.990;-86.756;2022-08-21T08:52:52;99064.12;;;26.54;54.55
55022;BME280;42516;35.990;-86.756;2022-08-21T08:55:28;99065.03;;;26.79;54.47
55022;BME280;42516;35.990;-86.756;2022-08-21T08:57:59;99066.20;;;26.65;54.36
55022;BME280;42516;35.990;-86.756;2022-08-21T09:00:28;99063.19;;;26.51;54.67
55022;BME280;42516;35.990;-86.756;2022-08-21T09:02:57;99058.54;;;26.64;54.85
55022;BME280;42516;35.990;-86.756;2022-08-21T09:05:28;99060.73;;;26.47;54.66
55022;BME280;42516;35.990;-86.756;2022-08-21T09:08:14;99071.65;;;26.51;54.56
55022;BME280;42516;35.990;-86.756;2022-08-21T09:10:51;99070.16;;;26.43;54.86
55022;BME280;42516;35.990;-86.756;2022-08-21T09:13:36;99066.69;;;26.52;54.74
55022;BME280;42516;35.990;-86.756;2022-08-21T09:16:11;99071.73;;;26.01;55.30
55022;BME280;42516;35.990;-86.756;2022-08-21T09:18:46;99077.76;;;26.67;54.47
55022;BME280;42516;35.990;-86.756;2022-08-21T09:21:24;99079.29;;;26.50;54.71
55022;BME280;42516;35.990;-86.756;2022-08-21T09:24:00;99077.94;;;26.36;55.13
55022;BME280;42516;35.990;-86.756;2022-08-21T09:26:32;99077.52;;;25.74;56.53
55022;BME280;42516;35.990;-86.756;2022-08-21T09:29:06;99078.50;;;26.15;55.64
55022;BME280;42516;35.990;-86.756;2022-08-21T09:31:36;99079.96;;;25.88;55.76
55022;BME280;42516;35.990;-86.756;2022-08-21T09:34:06;99085.14;;;26.39;55.12
55022;BME280;42516;35.990;-86.756;2022-08-21T09:36:38;99084.77;;;26.30;55.51
55022;BME280;42516;35.990;-86.756;2022-08-21T09:39:09;99084.39;;;26.19;56.15
55022;BME280;42516;35.990;-86.756;2022-08-21T09:41:39;99087.22;;;26.26;55.70
55022;BME280;42516;35.990;-86.756;2022-08-21T09:44:08;99086.94;;;26.16;55.86
55022;BME280;42516;35.990;-86.756;2022-08-21T09:46:36;99082.92;;;26.39;55.91
55022;BME280;42516;35.990;-86.756;2022-08-21T09:49:04;99085.08;;;26.10;56.75
55022;BME280;42516;35.990;-86.756;2022-08-21T09:51:35;99086.72;;;25.99;56.50
55022;BME280;42516;35.990;-86.756;2022-08-21T09:54:15;99088.21;;;26.24;56.43
55022;BME280;42516;35.990;-86.756;2022-08-21T09:56:56;99084.27;;;26.04;56.88
55022;BME280;42516;35.990;-86.756;2022-08-21T09:59:27;99082.17;;;25.93;56.67
55022;BME280;42516;35.990;-86.756;2022-08-21T10:01:55;99082.09;;;26.09;57.33
55022;BME280;42516;35.990;-86.756;2022-08-21T10:04:28;99078.70;;;26.12;56.94
55022;BME280;42516;35.990;-86.756;2022-08-21T10:07:08;99084.94;;;25.37;58.49
55022;BME280;42516;35.990;-86.756;2022-08-21T10:09:36;99085.16;;;25.80;57.59
55022;BME280;42516;35.990;-86.756;2022-08-21T10:12:13;99086.95;;;25.98;57.84
55022;BME280;42516;35.990;-86.756;2022-08-21T10:14:50;99090.61;;;25.55;58.10
55022;BME280;42516;35.990;-86.756;2022-08-21T10:17:31;99090.62;;;25.77;57.76
55022;BME280;42516;35.990;-86.756;2022-08-21T10:20:08;99090.42;;;26.22;56.80
55022;BME280;42516;35.990;-86.756;2022-08-21T10:22:48;99087.50;;;26.27;56.70
55022;BME280;42516;35.990;-86.756;2022-08-21T10:25:28;99089.59;;;26.55;56.56
55022;BME280;42516;35.990;-86.756;2022-08-21T10:28:04;99095.55;;;26.34;56.43
55022;BME280;42516;35.990;-86.756;2022-08-21T10:30:40;99097.87;;;26.45;56.30
55022;BME280;42516;35.990;-86.756;2022-08-21T10:33:23;99099.36;;;26.44;56.28
55022;BME280;42516;35.990;-86.756;2022-08-21T10:36:02;99103.35;;;26.36;55.98
55022;BME280;42516;35.990;-86.756;2022-08-21T10:38:47;99105.60;;;26.42;55.95
55022;BME280;42516;35.990;-86.756;2022-08-21T10:41:35;99115.86;;;26.60;55.11
55022;BME280;42516;35.990;-86.756;2022-08-21T10:44:13;99116.27;;;26.40;55.36
55022;BME280;42516;35.990;-86.756;2022-08-21T10:46:51;99118.25;;;26.67;55.37
55022;BME280;42516;35.990;-86.756;2022-08-21T10:49:26;99122.11;;;26.75;55.11
55022;BME280;42516;35.990;-86.756;2022-08-21T10:52:22;99124.50;;;26.86;54.47
55022;BME280;42516;35.990;-86.756;2022-08-21T10:54:57;99125.91;;;26.25;56.16
55022;BME280;42516;35.990;-86.756;2022-08-21T10:57:36;99127.66;;;26.34;55.53
55022;BME280;42516;35.990;-86.756;2022-08-21T11:00:11;99127.48;;;26.79;55.05
55022;BME280;42516;35.990;-86.756;2022-08-21T11:02:45;99124.59;;;26.85;55.13
55022;BME280;42516;35.990;-86.756;2022-08-21T11:05:19;99123.63;;;26.82;54.98
55022;BME280;42516;35.990;-86.756;2022-08-21T11:07:53;99117.60;;;26.52;55.72
55022;BME280;42516;35.990;-86.756;2022-08-21T11:10:24;99119.70;;;26.39;55.99
55022;BME280;42516;35.990;-86.756;2022-08-21T11:12:56;99135.04;;;26.10;57.03
55022;BME280;42516;35.990;-86.756;2022-08-21T11:15:37;99143.07;;;26.25;56.27
55022;BME280;42516;35.990;-86.756;2022-08-21T11:18:21;99138.81;;;25.87;57.15
55022;BME280;42516;35.990;-86.756;2022-08-21T11:20:56;99141.20;;;26.22;56.87
55022;BME280;42516;35.990;-86.756;2022-08-21T11:23:33;99140.00;;;25.98;58.04
55022;BME280;42516;35.990;-86.756;2022-08-21T11:26:10;99134.95;;;25.32;59.48
55022;BME280;42516;35.990;-86.756;2022-08-21T11:28:46;99139.56;;;25.56;59.07
55022;BME280;42516;35.990;-86.756;2022-08-21T11:31:36;99142.96;;;25.56;58.55
55022;BME280;42516;35.990;-86.756;2022-08-21T11:34:21;99141.30;;;25.55;58.57
55022;BME280;42516;35.990;-86.756;2022-08-21T11:36:59;99139.82;;;25.50;58.18
55022;BME280;42516;35.990;-86.756;2022-08-21T11:39:38;99138.79;;;25.59;59.05
55022;BME280;42516;35.990;-86.756;2022-08-21T11:42:16;99146.88;;;25.41;59.52
55022;BME280;42516;35.990;-86.756;2022-08-21T11:45:02;99149.68;;;25.64;59.08
55022;BME280;42516;35.990;-86.756;2022-08-21T11:47:52;99150.33;;;25.67;59.11
55022;BME280;42516;35.990;-86.756;2022-08-21T11:50:25;99152.84;;;25.33;60.37
55022;BME280;42516;35.990;-86.756;2022-08-21T11:52:59;99146.43;;;25.13;59.79
55022;BME280;42516;35.990;-86.756;2022-08-21T11:55:32;99145.67;;;25.73;58.55
55022;BME280;42516;35.990;-86.756;2022-08-21T11:58:07;99153.05;;;25.56;59.00
55022;BME280;42516;35.990;-86.756;2022-08-21T12:00:42;99154.12;;;25.49;59.83
55022;BME280;42516;35.990;-86.756;2022-08-21T12:03:14;99152.68;;;25.84;59.15
55022;BME280;42516;35.990;-86.756;2022-08-21T12:05:53;99155.93;;;25.73;58.95
55022;BME280;42516;35.990;-86.756;2022-08-21T12:08:30;99163.25;;;25.94;58.48
55022;BME280;42516;35.990;-86.756;2022-08-21T12:11:03;99165.20;;;25.80;58.31
55022;BME280;42516;35.990;-86.756;2022-08-21T12:13:33;99165.05;;;25.67;59.12
55022;BME280;42516;35.990;-86.756;2022-08-21T12:16:11;99163.80;;;25.64;59.31
55022;BME280;42516;35.990;-86.756;2022-08-21T12:18:41;99156.12;;;26.02;58.64
55022;BME280;42516;35.990;-86.756;2022-08-21T12:21:23;99148.72;;;25.97;58.32
55022;BME280;42516;35.990;-86.756;2022-08-21T12:24:04;99144.91;;;26.40;57.80
55022;BME280;42516;35.990;-86.756;2022-08-21T12:26:35;99153.92;;;26.12;57.97
55022;BME280;42516;35.990;-86.756;2022-08-21T12:29:21;99168.15;;;26.53;57.25
55022;BME280;42516;35.990;-86.756;2022-08-21T12:31:54;99170.06;;;26.38;57.54
55022;BME280;42516;35.990;-86.756;2022-08-21T12:34:32;99163.23;;;25.96;58.18
55022;BME280;42516;35.990;-86.756;2022-08-21T12:37:06;99171.92;;;26.24;58.46
55022;BME280;42516;35.990;-86.756;2022-08-21T12:39:36;99178.83;;;26.01;59.35
55022;BME280;42516;35.990;-86.756;2022-08-21T12:42:11;99189.13;;;26.04;59.06
55022;BME280;42516;35.990;-86.756;2022-08-21T12:44:46;99193.84;;;26.05;59.31
55022;BME280;42516;35.990;-86.756;2022-08-21T12:47:27;99195.22;;;26.26;58.78
55022;BME280;42516;35.990;-86.756;2022-08-21T12:50:03;99202.47;;;25.28;61.64
55022;BME280;42516;35.990;-86.756;2022-08-21T12:52:36;99197.34;;;25.54;61.26
55022;BME280;42516;35.990;-86.756;2022-08-21T12:55:14;99187.10;;;25.79;60.21
55022;BME280;42516;35.990;-86.756;2022-08-21T12:57:43;99192.56;;;25.79;60.28
55022;BME280;42516;35.990;-86.756;2022-08-21T13:00:13;99204.68;;;26.06;59.44